Time;durP1;ratioP1;P1;durP2;ratioP2;P2;SDS_P1;SDS_P2;PMS_P1;PMS_P2;Temp;Humidity;BMP_temperature;BMP_pressure;BME280_temperature;BME280_humidity;BME280_pressure;Samples;Min_cycle;Max_cycle;Signal;HPM_P1;HPM_P2
2023/11/22 00:00:59;;;;;;;13.70;5.72;;;4.70;99.90;;;;;;4969950;28;20027;-88
2023/11/22 00:03:24;;;;;;;17.17;5.97;;;4.70;99.90;;;;;;4980588;28;20027;-89
2023/11/22 00:05:51;;;;;;;13.35;5.38;;;4.70;99.90;;;;;;4963228;28;20030;-87
2023/11/22 00:08:17;;;;;;;12.68;5.15;;;4.70;99.90;;;;;;4980405;28;20031;-88
2023/11/22 00:10:44;;;;;;;12.10;5.28;;;4.70;99.90;;;;;;4963979;28;20015;-87
2023/11/22 00:13:11;;;;;;;12.20;4.72;;;4.70;99.90;;;;;;4963881;28;20082;-87
2023/11/22 00:15:37;;;;;;;14.05;6.45;;;4.80;99.90;;;;;;4964143;28;20026;-88
2023/11/22 00:18:03;;;;;;;12.48;5.68;;;4.70;99.90;;;;;;4963820;28;20047;-87
2023/11/22 00:20:30;;;;;;;16.73;6.28;;;4.70;99.90;;;;;;4980508;28;20022;-88
2023/11/22 00:22:56;;;;;;;14.55;5.68;;;4.70;99.90;;;;;;4963588;28;20047;-89
2023/11/22 00:25:22;;;;;;;13.88;5.85;;;4.70;99.90;;;;;;4980188;28;20055;-88
2023/11/22 00:27:48;;;;;;;14.00;5.15;;;4.70;99.90;;;;;;4962920;28;20031;-88
2023/11/22 00:30:14;;;;;;;11.10;4.70;;;4.70;99.90;;;;;;4962857;28;20019;-88
2023/11/22 00:32:43;;;;;;;12.60;5.65;;;4.70;99.90;;;;;;4963022;28;20038;-87
2023/11/22 00:35:09;;;;;;;11.43;5.20;;;4.70;99.90;;;;;;4959161;29;20031;-94
2023/11/22 00:37:34;;;;;;;23.52;7.90;;;4.70;99.90;;;;;;4961383;28;20023;-89
2023/11/22 00:40:06;;;;;;;15.05;5.32;;;4.70;99.90;;;;;;4962817;28;20035;-88
2023/11/22 00:42:31;;;;;;;12.93;5.40;;;4.70;99.90;;;;;;4973580;28;20034;-92
2023/11/22 00:44:57;;;;;;;15.45;6.20;;;4.70;99.90;;;;;;4969751;28;20015;-92
2023/11/22 00:47:24;;;;;;;10.82;4.00;;;4.80;99.90;;;;;;4970436;28;20019;-91
2023/11/22 00:49:49;;;;;;;17.70;6.15;;;4.80;99.90;;;;;;4964690;28;20030;-91
2023/11/22 00:52:15;;;;;;;15.98;5.35;;;4.90;99.90;;;;;;4969374;28;20030;-89
2023/11/22 00:54:41;;;;;;;16.02;4.60;;;4.90;99.90;;;;;;4969924;28;20018;-89
2023/11/22 00:57:07;;;;;;;12.18;5.53;;;4.90;99.90;;;;;;4969966;28;20019;-91
2023/11/22 00:59:32;;;;;;;10.07;4.40;;;4.90;99.90;;;;;;4971099;28;20023;-91
2023/11/22 01:01:58;;;;;;;13.20;5.47;;;4.90;99.90;;;;;;4987620;28;20037;-93
2023/11/22 01:04:24;;;;;;;13.85;5.32;;;4.80;99.90;;;;;;4972293;28;20015;-91
2023/11/22 01:06:49;;;;;;;13.73;5.55;;;4.90;99.90;;;;;;4972660;28;20051;-89
2023/11/22 01:09:15;;;;;;;12.25;5.63;;;4.80;99.90;;;;;;4962357;28;20016;-88
2023/11/22 01:11:41;;;;;;;12.93;6.47;;;4.90;99.90;;;;;;4962185;28;20070;-90
2023/11/22 01:14:06;;;;;;;11.32;4.32;;;4.90;99.90;;;;;;4962593;28;20043;-89
2023/11/22 01:16:32;;;;;;;12.52;5.05;;;4.90;99.90;;;;;;4962914;28;20031;-89
2023/11/22 01:18:58;;;;;;;16.80;6.35;;;4.90;99.90;;;;;;4980231;28;20015;-88
2023/11/22 01:21:23;;;;;;;9.77;5.32;;;4.90;99.90;;;;;;5000610;28;20030;-88
2023/11/22 01:23:49;;;;;;;8.90;4.45;;;4.80;99.90;;;;;;5017739;28;20574;-91
2023/11/22 01:26:16;;;;;;;15.40;8.05;;;4.80;99.90;;;;;;5001504;28;20058;-92
2023/11/22 01:28:44;;;;;;;20.65;9.40;;;4.90;99.90;;;;;;5017651;28;20102;-90
2023/11/22 01:31:12;;;;;;;24.30;11.40;;;4.90;99.90;;;;;;5000600;28;20054;-92
2023/11/22 01:33:38;;;;;;;19.10;7.97;;;5.00;99.90;;;;;;5017330;28;20022;-93
2023/11/22 01:36:04;;;;;;;23.95;12.10;;;5.00;99.90;;;;;;5000241;28;20102;-93
2023/11/22 01:38:29;;;;;;;10.80;5.18;;;5.00;99.90;;;;;;5000379;28;20019;-90
2023/11/22 01:40:55;;;;;;;26.23;11.38;;;5.10;99.90;;;;;;4999694;28;20030;-93
2023/11/22 01:43:23;;;;;;;23.42;11.52;;;5.10;99.90;;;;;;4999233;28;20011;-90
2023/11/22 01:45:50;;;;;;;21.00;9.00;;;5.10;99.90;;;;;;4998579;28;20018;-91
2023/11/22 01:48:16;;;;;;;16.60;6.82;;;5.10;99.90;;;;;;4998482;28;20042;-94
2023/11/22 01:50:43;;;;;;;16.15;6.20;;;5.10;99.90;;;;;;4996584;28;20022;-95
2023/11/22 01:53:12;;;;;;;15.13;5.88;;;5.10;99.90;;;;;;4995687;28;20062;-94
2023/11/22 01:55:39;;;;;;;10.85;5.32;;;5.10;99.90;;;;;;4997046;28;20031;-94
2023/11/22 01:58:05;;;;;;;11.73;5.18;;;5.10;99.90;;;;;;4997636;28;20019;-94
2023/11/22 02:00:37;;;;;;;16.00;6.32;;;5.10;99.90;;;;;;5001686;28;20093;-93
2023/11/22 02:03:03;;;;;;;19.00;8.35;;;5.10;99.90;;;;;;5001716;28;20058;-92
2023/11/22 02:05:28;;;;;;;11.77;6.28;;;5.10;99.90;;;;;;5002452;28;20407;-93
2023/11/22 02:07:55;;;;;;;16.95;7.38;;;5.10;99.90;;;;;;5002352;28;20084;-95
2023/11/22 02:10:21;;;;;;;20.15;6.43;;;5.10;99.90;;;;;;5002819;28;20046;-93
2023/11/22 02:12:46;;;;;;;13.90;6.05;;;5.10;99.90;;;;;;5003321;28;20030;-92
2023/11/22 02:15:12;;;;;;;17.52;6.90;;;5.10;99.90;;;;;;5004081;28;20098;-91
2023/11/22 02:17:39;;;;;;;19.92;6.72;;;5.10;99.90;;;;;;5004092;28;20041;-93
2023/11/22 02:20:08;;;;;;;13.95;6.40;;;5.10;99.90;;;;;;5003100;28;20050;-95
2023/11/22 02:22:42;;;;;;;13.13;6.40;;;5.10;99.90;;;;;;5003701;28;20015;-90
2023/11/22 02:25:07;;;;;;;14.07;5.90;;;5.10;99.90;;;;;;5003880;28;20015;-91
2023/11/22 02:27:33;;;;;;;15.18;6.85;;;5.10;99.90;;;;;;5002578;28;20049;-89
2023/11/22 02:29:59;;;;;;;8.60;5.00;;;5.10;99.90;;;;;;5003233;28;20014;-93
2023/11/22 02:32:24;;;;;;;10.85;5.20;;;5.10;99.90;;;;;;5003000;28;20022;-92
2023/11/22 02:34:50;;;;;;;13.95;5.35;;;5.20;99.90;;;;;;5003390;28;20045;-90
2023/11/22 02:37:16;;;;;;;13.68;7.82;;;5.20;99.90;;;;;;5003806;28;20103;-91
2023/11/22 02:40:05;;;;;;;19.67;10.52;;;5.20;99.90;;;;;;5003409;28;20034;-89
2023/11/22 02:42:31;;;;;;;20.27;10.18;;;5.30;99.90;;;;;;5003437;28;20111;-90
2023/11/22 02:44:57;;;;;;;17.08;6.07;;;5.30;99.90;;;;;;5003190;28;20014;-89
2023/11/22 02:47:23;;;;;;;17.52;7.57;;;5.40;99.90;;;;;;5020100;28;20090;-90
2023/11/22 02:49:49;;;;;;;16.40;9.75;;;5.50;99.90;;;;;;5003542;28;20027;-90
2023/11/22 02:52:16;;;;;;;18.13;9.32;;;5.50;99.90;;;;;;5003618;28;20097;-90
2023/11/22 02:54:47;;;;;;;24.50;10.82;;;5.60;99.90;;;;;;5003673;28;20033;-89
2023/11/22 02:57:13;;;;;;;17.92;9.50;;;5.60;99.90;;;;;;5003727;28;20026;-92
2023/11/22 02:59:42;;;;;;;14.48;7.60;;;5.70;99.90;;;;;;5003823;28;20035;-89
2023/11/22 03:02:08;;;;;;;17.55;8.10;;;5.70;99.90;;;;;;5020744;28;20019;-89
2023/11/22 03:04:34;;;;;;;21.13;8.77;;;5.80;99.90;;;;;;5003934;28;20080;-87
2023/11/22 03:07:00;;;;;;;17.23;7.95;;;5.70;99.90;;;;;;5003396;28;20069;-90
2023/11/22 03:09:26;;;;;;;16.48;7.93;;;5.70;99.90;;;;;;5003047;28;20038;-88
2023/11/22 03:11:52;;;;;;;14.02;6.55;;;5.80;99.90;;;;;;5003217;28;20026;-89
2023/11/22 03:14:18;;;;;;;12.35;5.90;;;5.80;99.90;;;;;;5003388;28;20045;-91
2023/11/22 03:16:45;;;;;;;13.40;7.95;;;5.80;99.90;;;;;;5003769;28;20029;-89
2023/11/22 03:19:13;;;;;;;20.30;8.23;;;5.80;99.90;;;;;;5003733;28;20110;-89
2023/11/22 03:21:40;;;;;;;14.60;6.80;;;5.80;99.90;;;;;;5003565;28;20022;-88
2023/11/22 03:24:08;;;;;;;13.07;6.20;;;5.90;99.90;;;;;;5003349;28;20010;-88
2023/11/22 03:26:34;;;;;;;14.30;6.70;;;5.90;99.90;;;;;;5002935;28;20078;-88
2023/11/22 03:29:00;;;;;;;12.77;5.50;;;5.90;99.90;;;;;;5003245;28;20022;-89
2023/11/22 03:31:27;;;;;;;11.27;5.15;;;5.90;99.90;;;;;;5003423;28;20022;-89
2023/11/22 03:33:54;;;;;;;11.98;4.28;;;6.00;99.90;;;;;;5003466;28;20027;-93
2023/11/22 03:36:20;;;;;;;7.43;3.58;;;6.00;99.90;;;;;;5003310;28;20040;-89
2023/11/22 03:38:46;;;;;;;7.50;3.25;;;6.00;99.90;;;;;;5003196;28;20030;-88
2023/11/22 03:41:12;;;;;;;5.95;3.15;;;6.10;99.90;;;;;;5003309;28;20019;-88
2023/11/22 03:43:38;;;;;;;9.25;2.42;;;6.10;99.90;;;;;;5003059;28;20025;-88
2023/11/22 03:46:04;;;;;;;4.35;2.22;;;6.10;99.90;;;;;;5003134;28;20023;-89
2023/11/22 03:48:30;;;;;;;5.57;2.20;;;6.10;99.90;;;;;;5020085;28;20084;-91
2023/11/22 03:50:56;;;;;;;5.95;2.30;;;6.10;99.90;;;;;;5003119;28;20041;-88
2023/11/22 03:53:22;;;;;;;8.93;2.72;;;6.20;99.90;;;;;;5003017;28;20081;-89
2023/11/22 03:55:50;;;;;;;10.27;2.20;;;6.20;99.90;;;;;;5002991;28;20015;-90
2023/11/22 03:58:15;;;;;;;10.85;2.35;;;6.20;99.90;;;;;;5002310;28;20022;-89
2023/11/22 04:00:41;;;;;;;10.27;2.20;;;6.20;99.90;;;;;;5002749;28;20015;-88
2023/11/22 04:03:07;;;;;;;10.68;2.60;;;6.30;99.90;;;;;;5003002;28;20018;-88
2023/11/22 04:05:32;;;;;;;11.90;2.33;;;6.30;99.90;;;;;;5002258;28;20065;-89
2023/11/22 04:07:58;;;;;;;6.28;2.45;;;6.30;99.90;;;;;;5002432;28;20102;-89
2023/11/22 04:10:24;;;;;;;7.43;2.55;;;6.30;99.90;;;;;;5002188;28;20017;-89
2023/11/22 04:12:50;;;;;;;3.47;1.42;;;6.40;99.90;;;;;;5002378;28;20114;-89
2023/11/22 04:15:16;;;;;;;3.53;1.65;;;6.40;99.90;;;;;;5002659;28;20031;-88
2023/11/22 04:17:41;;;;;;;4.35;2.00;;;6.40;99.90;;;;;;5002567;28;20068;-89
2023/11/22 04:20:14;;;;;;;4.57;1.60;;;6.40;99.90;;;;;;5002209;28;20014;-89
2023/11/22 04:22:47;;;;;;;5.85;1.65;;;6.40;99.90;;;;;;5002289;28;20038;-89
2023/11/22 04:25:16;;;;;;;4.15;1.60;;;6.40;99.90;;;;;;5002248;28;20181;-91
2023/11/22 04:27:42;;;;;;;8.25;1.60;;;6.40;99.90;;;;;;5002569;28;20019;-90
2023/11/22 04:30:13;;;;;;;12.45;1.45;;;6.50;99.90;;;;;;4985890;28;20101;-87
2023/11/22 04:32:38;;;;;;;7.78;1.52;;;6.50;99.90;;;;;;5001951;28;20041;-91
2023/11/22 04:35:05;;;;;;;3.95;1.30;;;6.50;99.90;;;;;;5001597;28;20022;-92
2023/11/22 04:37:32;;;;;;;9.88;1.55;;;6.50;99.90;;;;;;5000629;28;20022;-92
2023/11/22 04:39:58;;;;;;;5.75;1.20;;;6.60;99.90;;;;;;5000283;28;20046;-94
2023/11/22 04:42:24;;;;;;;5.35;1.73;;;6.60;99.90;;;;;;4998172;28;20030;-94
2023/11/22 04:44:50;;;;;;;3.85;1.42;;;6.60;99.90;;;;;;4997121;28;20022;-95
2023/11/22 04:47:15;;;;;;;5.32;1.08;;;6.60;99.90;;;;;;4997973;28;20041;-92
2023/11/22 04:49:41;;;;;;;8.80;1.50;;;6.60;99.90;;;;;;4996242;28;20057;-93
2023/11/22 04:52:07;;;;;;;6.13;1.10;;;6.60;99.90;;;;;;4996346;28;20066;-93
2023/11/22 04:54:34;;;;;;;6.93;0.90;;;6.70;99.90;;;;;;4998971;28;20053;-94
2023/11/22 04:57:00;;;;;;;7.13;1.20;;;6.60;99.90;;;;;;5000535;28;20022;-90
2023/11/22 04:59:25;;;;;;;3.28;1.05;;;6.60;99.90;;;;;;5000395;28;20018;-94
2023/11/22 05:01:51;;;;;;;5.75;1.08;;;6.60;99.90;;;;;;4999310;28;20026;-93
2023/11/22 05:04:18;;;;;;;7.45;1.75;;;6.60;99.90;;;;;;4998956;28;20014;-93
2023/11/22 05:06:44;;;;;;;6.72;1.15;;;6.60;99.90;;;;;;4995901;28;20030;-94
2023/11/22 05:09:10;;;;;;;6.05;1.33;;;6.60;99.90;;;;;;4996858;28;20066;-95
2023/11/22 05:11:36;;;;;;;4.43;1.55;;;6.60;99.90;;;;;;4996601;28;20045;-91
2023/11/22 05:14:02;;;;;;;6.45;1.20;;;6.50;99.90;;;;;;4997352;28;20062;-92
2023/11/22 05:16:28;;;;;;;9.75;1.00;;;6.60;99.90;;;;;;4994726;28;20050;-96
2023/11/22 05:18:53;;;;;;;5.72;1.40;;;6.60;99.90;;;;;;4994338;28;20040;-96
2023/11/22 05:21:19;;;;;;;3.05;1.15;;;6.60;99.90;;;;;;4991377;28;20053;-94
2023/11/22 05:23:45;;;;;;;4.40;1.02;;;6.60;99.90;;;;;;4997841;28;20026;-91
2023/11/22 05:26:10;;;;;;;3.00;0.90;;;6.60;99.90;;;;;;5000481;28;20041;-88
2023/11/22 05:28:36;;;;;;;3.20;1.10;;;6.70;99.90;;;;;;5001124;28;20098;-91
2023/11/22 05:31:05;;;;;;;1.10;0.70;;;6.60;99.90;;;;;;5001123;28;20026;-88
2023/11/22 05:33:32;;;;;;;4.70;1.02;;;6.70;99.90;;;;;;5000154;28;20042;-88
2023/11/22 05:35:58;;;;;;;8.95;0.98;;;6.60;99.90;;;;;;5000711;28;20034;-93
2023/11/22 05:38:24;;;;;;;5.10;1.10;;;6.60;99.90;;;;;;5000937;28;20030;-89
2023/11/22 05:40:49;;;;;;;5.55;1.02;;;6.70;99.90;;;;;;5000376;28;20014;-89
2023/11/22 05:43:15;;;;;;;5.82;1.10;;;6.70;99.90;;;;;;5000670;28;20045;-89
2023/11/22 05:45:43;;;;;;;3.17;0.70;;;6.70;99.90;;;;;;5000828;28;20084;-89
2023/11/22 05:48:10;;;;;;;10.98;1.48;;;6.60;99.90;;;;;;5000383;28;20046;-88
2023/11/22 05:50:36;;;;;;;1.95;0.90;;;6.70;99.90;;;;;;5000304;28;20030;-89
2023/11/22 05:53:02;;;;;;;10.95;1.10;;;6.60;99.90;;;;;;4996949;28;20125;-95
2023/11/22 05:55:29;;;;;;;3.42;0.80;;;6.70;99.90;;;;;;4994900;28;20042;-89
2023/11/22 05:57:54;;;;;;;7.70;1.17;;;6.70;99.90;;;;;;5000298;28;20242;-90
2023/11/22 06:00:20;;;;;;;3.50;0.77;;;6.70;99.90;;;;;;5000412;28;20018;-90
2023/11/22 06:02:46;;;;;;;2.47;0.85;;;6.80;99.90;;;;;;5000364;28;20090;-89
2023/11/22 06:05:12;;;;;;;1.83;0.95;;;6.80;99.90;;;;;;4984953;28;20018;-92
2023/11/22 06:07:37;;;;;;;1.33;0.80;;;6.80;99.90;;;;;;4969449;28;20043;-90
2023/11/22 06:10:03;;;;;;;3.42;1.10;;;6.80;99.90;;;;;;4967531;28;20018;-90
2023/11/22 06:12:29;;;;;;;6.78;1.35;;;6.80;99.90;;;;;;4976792;28;20031;-90
2023/11/22 06:14:54;;;;;;;10.25;1.63;;;6.90;99.90;;;;;;4969041;28;20047;-91
2023/11/22 06:17:20;;;;;;;4.45;1.00;;;6.90;99.90;;;;;;4975837;28;20019;-88
2023/11/22 06:20:10;;;;;;;5.28;1.52;;;6.90;99.90;;;;;;4977097;28;20011;-91
2023/11/22 06:22:42;;;;;;;4.65;1.42;;;6.90;99.90;;;;;;4965564;28;20015;-94
2023/11/22 06:25:28;;;;;;;5.72;2.30;;;6.90;99.90;;;;;;4977098;28;20043;-93
2023/11/22 06:27:55;;;;;;;7.95;2.03;;;6.90;99.90;;;;;;4966514;28;20054;-95
2023/11/22 06:30:22;;;;;;;8.45;1.88;;;7.00;99.90;;;;;;4980098;28;20015;-95
2023/11/22 06:32:47;;;;;;;4.85;1.45;;;7.00;99.90;;;;;;4962960;28;20099;-95
2023/11/22 06:35:14;;;;;;;8.68;2.30;;;7.00;99.90;;;;;;4957718;28;20053;-91
2023/11/22 06:37:43;;;;;;;7.90;2.17;;;7.00;99.90;;;;;;4965006;28;20031;-90
2023/11/22 06:40:12;;;;;;;8.05;2.47;;;7.00;99.90;;;;;;4964300;28;20019;-92
2023/11/22 06:42:38;;;;;;;11.95;1.77;;;7.00;99.90;;;;;;4979115;28;20028;-93
2023/11/22 06:45:06;;;;;;;6.25;1.67;;;7.00;99.90;;;;;;4980591;28;20054;-93
2023/11/22 06:47:32;;;;;;;7.75;2.45;;;7.00;99.90;;;;;;4984013;28;20046;-94
2023/11/22 06:49:58;;;;;;;6.10;2.28;;;7.00;99.90;;;;;;4969126;28;20026;-88
2023/11/22 06:52:24;;;;;;;11.13;3.60;;;7.00;99.90;;;;;;4975182;28;20043;-89
2023/11/22 06:54:49;;;;;;;7.65;2.10;;;7.00;99.90;;;;;;4991901;28;20026;-88
2023/11/22 06:57:15;;;;;;;13.98;2.72;;;7.00;99.90;;;;;;4972827;28;20015;-87
2023/11/22 06:59:41;;;;;;;5.85;2.30;;;7.10;99.90;;;;;;4977466;28;20021;-90
2023/11/22 07:02:07;;;;;;;8.95;1.80;;;7.10;99.90;;;;;;4990104;28;20087;-93
2023/11/22 07:04:33;;;;;;;11.20;4.00;;;7.10;99.90;;;;;;4991858;28;20062;-89
2023/11/22 07:07:00;;;;;;;8.07;2.40;;;7.10;99.90;;;;;;4972950;28;20043;-90
2023/11/22 07:09:26;;;;;;;12.55;2.40;;;7.10;99.90;;;;;;4993197;28;20022;-89
2023/11/22 07:11:52;;;;;;;8.00;2.10;;;7.20;99.90;;;;;;4973846;28;20039;-90
2023/11/22 07:14:19;;;;;;;4.15;1.85;;;7.20;99.90;;;;;;4971029;28;20166;-91
2023/11/22 07:16:45;;;;;;;3.63;1.88;;;7.20;99.90;;;;;;4973790;28;20023;-89
2023/11/22 07:19:12;;;;;;;7.35;1.80;;;7.20;99.90;;;;;;4992101;28;20070;-92
2023/11/22 07:21:38;;;;;;;6.03;1.67;;;7.20;99.90;;;;;;4972201;28;20011;-88
2023/11/22 07:24:06;;;;;;;7.80;2.00;;;7.20;99.90;;;;;;4989484;28;20011;-90
2023/11/22 07:26:33;;;;;;;4.50;1.35;;;7.20;99.90;;;;;;4973366;28;20039;-88
2023/11/22 07:29:02;;;;;;;7.40;1.50;;;7.30;99.90;;;;;;4985340;28;20039;-91
2023/11/22 07:31:29;;;;;;;7.32;1.23;;;7.30;99.90;;;;;;4983231;28;20110;-90
2023/11/22 07:33:55;;;;;;;4.65;1.40;;;7.30;99.90;;;;;;4982753;28;20029;-88
2023/11/22 07:36:21;;;;;;;7.45;1.80;;;7.30;99.90;;;;;;4983791;28;20015;-88
2023/11/22 07:38:48;;;;;;;2.88;1.30;;;7.30;99.90;;;;;;4983926;28;20021;-90
2023/11/22 07:41:13;;;;;;;4.28;1.55;;;7.40;99.90;;;;;;4975113;28;20026;-89
2023/11/22 07:43:39;;;;;;;6.07;1.10;;;7.40;99.90;;;;;;4987582;28;20046;-89
2023/11/22 07:46:12;;;;;;;2.35;1.00;;;7.40;99.90;;;;;;4972760;28;20043;-89
2023/11/22 07:48:38;;;;;;;6.40;1.30;;;7.40;99.90;;;;;;4963381;28;20011;-89
2023/11/22 07:51:05;;;;;;;3.80;1.50;;;7.50;99.90;;;;;;4962049;28;20091;-91
2023/11/22 07:53:34;;;;;;;6.75;1.60;;;7.60;99.90;;;;;;4963275;28;20094;-88
2023/11/22 07:56:04;;;;;;;5.50;1.23;;;7.60;99.90;;;;;;4963086;28;20011;-90
2023/11/22 07:58:31;;;;;;;5.30;1.35;;;7.60;99.90;;;;;;4983707;28;20018;-89
2023/11/22 08:00:57;;;;;;;7.72;1.50;;;7.70;99.90;;;;;;4982256;28;20029;-89
2023/11/22 08:03:25;;;;;;;6.30;1.38;;;7.80;99.90;;;;;;4995101;28;20034;-89
2023/11/22 08:05:55;;;;;;;9.07;1.40;;;7.80;99.90;;;;;;4999680;28;20017;-89
2023/11/22 08:08:21;;;;;;;4.32;1.17;;;7.80;99.90;;;;;;4982490;28;20031;-89
2023/11/22 08:10:48;;;;;;;8.15;1.25;;;7.80;99.90;;;;;;4982392;28;20031;-94
2023/11/22 08:13:16;;;;;;;7.90;1.98;;;7.90;99.90;;;;;;4998340;28;20102;-91
2023/11/22 08:15:41;;;;;;;4.53;1.55;;;7.90;99.90;;;;;;4995565;28;20034;-90
2023/11/22 08:18:07;;;;;;;4.78;1.30;;;7.90;99.90;;;;;;4978438;28;20022;-89
2023/11/22 08:20:33;;;;;;;6.93;1.52;;;8.00;99.90;;;;;;4971064;28;20037;-92
2023/11/22 08:23:00;;;;;;;4.55;1.20;;;8.00;99.90;;;;;;4973772;28;20103;-90
2023/11/22 08:25:26;;;;;;;3.70;1.23;;;8.00;99.90;;;;;;4972039;28;20019;-89
2023/11/22 08:27:52;;;;;;;8.52;2.20;;;8.10;99.90;;;;;;4975525;28;20042;-94
2023/11/22 08:30:19;;;;;;;11.90;3.45;;;8.10;99.90;;;;;;4964466;28;20027;-96
2023/11/22 08:32:53;;;;;;;5.65;1.58;;;8.10;99.90;;;;;;4965520;28;20031;-95
2023/11/22 08:35:23;;;;;;;4.72;1.40;;;8.10;99.90;;;;;;4974760;28;20045;-90
2023/11/22 08:37:50;;;;;;;7.80;1.40;;;8.10;99.90;;;;;;4981490;28;20015;-90
2023/11/22 08:40:20;;;;;;;5.60;1.58;;;8.10;99.90;;;;;;4980709;28;20029;-90
2023/11/22 08:42:46;;;;;;;9.05;1.48;;;8.10;99.90;;;;;;4999073;28;20038;-87
2023/11/22 08:45:12;;;;;;;5.40;1.40;;;8.10;99.90;;;;;;4998895;28;20019;-90
2023/11/22 08:47:40;;;;;;;5.10;1.30;;;8.20;99.90;;;;;;4979047;28;20061;-88
2023/11/22 08:50:08;;;;;;;5.65;2.28;;;8.20;99.90;;;;;;4980371;28;20085;-89
2023/11/22 08:52:34;;;;;;;9.68;1.98;;;8.20;99.90;;;;;;4981024;28;20046;-94
2023/11/22 08:55:00;;;;;;;9.68;2.00;;;8.30;99.90;;;;;;4980185;28;20026;-90
2023/11/22 08:57:27;;;;;;;5.45;1.08;;;8.30;99.90;;;;;;4997782;28;20014;-91
2023/11/22 08:59:53;;;;;;;5.55;1.60;;;8.40;99.90;;;;;;4977124;28;20023;-89
2023/11/22 09:02:22;;;;;;;4.93;2.03;;;8.40;99.90;;;;;;4961147;28;20027;-90
2023/11/22 09:04:48;;;;;;;6.72;1.90;;;8.40;99.90;;;;;;4977496;28;20007;-87
2023/11/22 09:07:16;;;;;;;9.00;1.70;;;8.40;99.90;;;;;;4981606;28;20060;-87
2023/11/22 09:09:43;;;;;;;3.58;1.20;;;8.50;99.90;;;;;;4978524;28;20007;-90
2023/11/22 09:12:12;;;;;;;4.40;1.48;;;8.50;99.90;;;;;;4961154;29;20037;-94
2023/11/22 09:14:40;;;;;;;5.38;1.23;;;8.50;99.90;;;;;;4974599;28;20031;-89
2023/11/22 09:17:07;;;;;;;2.35;0.63;;;8.60;99.90;;;;;;4981412;28;20034;-87
2023/11/22 09:19:33;;;;;;;8.30;1.50;;;8.60;99.90;;;;;;4979443;28;20042;-89
2023/11/22 09:21:59;;;;;;;4.68;1.20;;;8.70;99.90;;;;;;4961739;28;20094;-86
2023/11/22 09:24:28;;;;;;;5.10;1.30;;;8.70;99.90;;;;;;4972646;28;20038;-91
2023/11/22 09:26:54;;;;;;;2.97;1.08;;;8.80;99.90;;;;;;4981118;28;20023;-87
2023/11/22 09:29:19;;;;;;;3.50;1.45;;;8.80;99.90;;;;;;4979183;28;20041;-94
2023/11/22 09:31:46;;;;;;;2.47;1.08;;;8.80;99.90;;;;;;4961309;28;20039;-86
2023/11/22 09:34:13;;;;;;;6.38;1.20;;;8.90;99.90;;;;;;4987216;28;20026;-88
2023/11/22 09:36:39;;;;;;;4.60;1.77;;;8.90;99.90;;;;;;4998135;28;20030;-89
2023/11/22 09:39:08;;;;;;;1.33;0.80;;;8.90;99.90;;;;;;4981065;28;20050;-90
2023/11/22 09:41:37;;;;;;;5.43;1.27;;;8.90;99.90;;;;;;4981248;28;20015;-92
2023/11/22 09:44:04;;;;;;;4.10;1.40;;;8.90;99.90;;;;;;4997674;28;20034;-87
2023/11/22 09:46:31;;;;;;;3.63;1.40;;;8.90;99.90;;;;;;4980982;28;20015;-88
2023/11/22 09:48:57;;;;;;;6.65;1.67;;;8.90;99.90;;;;;;4977442;28;20023;-86
2023/11/22 09:51:26;;;;;;;6.65;2.38;;;8.90;99.90;;;;;;4980905;28;20038;-88
2023/11/22 09:54:00;;;;;;;7.20;1.77;;;8.90;99.90;;;;;;4980791;28;20069;-92
2023/11/22 09:56:27;;;;;;;7.88;2.45;;;8.90;99.90;;;;;;4977638;28;20020;-94
2023/11/22 09:58:55;;;;;;;4.57;2.25;;;8.90;99.90;;;;;;4969114;28;20035;-93
2023/11/22 10:01:22;;;;;;;8.48;2.47;;;8.90;99.90;;;;;;4966882;28;20066;-90
2023/11/22 10:03:50;;;;;;;7.05;3.25;;;8.80;99.90;;;;;;4968642;28;20082;-96
2023/11/22 10:06:17;;;;;;;7.88;2.17;;;8.80;99.90;;;;;;4986345;28;20015;-88
2023/11/22 10:08:43;;;;;;;7.47;2.28;;;8.90;99.90;;;;;;4972619;28;20090;-89
2023/11/22 10:11:15;;;;;;;8.43;2.42;;;8.80;99.90;;;;;;4983976;28;20019;-91
2023/11/22 10:13:40;;;;;;;7.50;2.20;;;8.90;99.90;;;;;;4987459;28;20042;-89
2023/11/22 10:16:15;;;;;;;3.38;1.88;;;8.90;99.90;;;;;;4972913;28;20019;-91
2023/11/22 10:18:48;;;;;;;8.30;2.28;;;8.80;99.90;;;;;;4972384;28;20051;-91
2023/11/22 10:21:25;;;;;;;4.88;2.42;;;8.80;99.90;;;;;;4975804;28;20015;-91
2023/11/22 10:23:56;;;;;;;5.03;2.08;;;8.80;99.90;;;;;;4976661;28;20018;-90
2023/11/22 10:26:23;;;;;;;;;;;8.80;99.90;;;;;;4974440;28;20027;-91
2023/11/22 10:28:52;;;;;;;4.75;3.67;;;8.80;99.90;;;;;;4975584;28;19910;-91
2023/11/22 10:31:18;;;;;;;5.18;2.05;;;8.80;99.90;;;;;;4976472;28;20050;-92
2023/11/22 10:33:44;;;;;;;5.93;2.15;;;8.80;99.90;;;;;;4959010;28;20031;-90
2023/11/22 10:36:12;;;;;;;6.97;2.13;;;8.80;99.90;;;;;;4989079;28;20030;-89
2023/11/22 10:38:37;;;;;;;4.53;2.10;;;8.80;99.90;;;;;;4990601;28;20018;-87
2023/11/22 10:41:05;;;;;;;6.88;2.10;;;8.70;99.90;;;;;;4978640;28;20018;-88
2023/11/22 10:43:34;;;;;;;4.18;2.20;;;8.70;99.90;;;;;;4975155;28;20057;-89
2023/11/22 10:46:02;;;;;;;6.20;2.60;;;8.70;99.90;;;;;;4983870;28;20038;-92
2023/11/22 10:48:29;;;;;;;4.85;3.28;;;8.70;99.90;;;;;;4997331;28;20333;-89
2023/11/22 10:50:56;;;;;;;12.38;3.55;;;8.70;99.90;;;;;;4975741;28;20026;-89
2023/11/22 10:53:32;;;;;;;10.02;4.22;;;8.70;99.90;;;;;;4984679;28;20058;-91
2023/11/22 10:56:15;;;;;;;5.65;4.57;;;8.70;99.90;;;;;;4983908;28;20030;-88
2023/11/22 10:58:50;;;;;;;7.47;4.88;;;8.70;99.90;;;;;;4982300;28;20086;-91
2023/11/22 11:01:17;;;;;;;8.27;6.10;;;8.70;99.90;;;;;;4964115;28;20019;-89
2023/11/22 11:03:51;;;;;;;6.97;5.30;;;8.70;99.90;;;;;;4964327;28;20027;-88
2023/11/22 11:06:20;;;;;;;8.35;4.95;;;8.80;99.90;;;;;;4960248;28;20023;-94
2023/11/22 11:08:48;;;;;;;9.35;4.35;;;8.80;99.90;;;;;;4978233;28;20039;-90
2023/11/22 11:11:15;;;;;;;6.30;3.90;;;8.80;99.90;;;;;;4971537;28;20043;-91
2023/11/22 11:13:42;;;;;;;6.72;3.95;;;8.80;99.90;;;;;;4971584;28;20031;-89
2023/11/22 11:16:08;;;;;;;6.03;3.47;;;8.80;99.90;;;;;;4984981;28;20031;-89
2023/11/22 11:18:35;;;;;;;6.78;4.00;;;8.90;99.90;;;;;;4968809;28;20036;-90
2023/11/22 11:21:08;;;;;;;9.10;4.38;;;8.90;99.90;;;;;;4975911;28;20031;-94
2023/11/22 11:23:34;;;;;;;8.23;5.75;;;8.90;99.90;;;;;;4979041;28;20038;-90
2023/11/22 11:26:15;;;;;;;9.85;5.53;;;9.00;99.90;;;;;;4980328;28;20032;-89
2023/11/22 11:28:49;;;;;;;7.38;5.43;;;9.00;99.90;;;;;;4980243;28;20099;-89
2023/11/22 11:31:16;;;;;;;16.42;9.57;;;9.00;99.90;;;;;;4965794;28;20043;-89
2023/11/22 11:33:48;;;;;;;13.07;10.70;;;9.00;99.90;;;;;;4976206;28;20111;-90
2023/11/22 11:36:25;;;;;;;13.30;10.50;;;9.10;99.90;;;;;;4961410;29;20023;-88
2023/11/22 11:38:56;;;;;;;15.82;12.65;;;9.10;99.90;;;;;;4979707;28;20015;-88
2023/11/22 11:41:32;;;;;;;12.00;10.55;;;9.10;99.90;;;;;;4980328;28;20027;-90
2023/11/22 11:43:58;;;;;;;14.52;10.60;;;9.10;99.90;;;;;;4977339;28;20027;-89
2023/11/22 11:46:27;;;;;;;14.75;11.23;;;9.10;99.90;;;;;;4961194;29;20035;-89
2023/11/22 11:48:53;;;;;;;15.45;12.55;;;9.10;99.90;;;;;;4980289;28;20020;-88
2023/11/22 11:51:24;;;;;;;20.90;11.02;;;9.20;99.90;;;;;;4971572;28;20015;-89
2023/11/22 11:53:50;;;;;;;11.48;9.70;;;9.20;99.90;;;;;;4991020;28;20042;-92
2023/11/22 11:56:16;;;;;;;11.05;8.05;;;9.20;99.90;;;;;;4967679;28;20019;-88
2023/11/22 11:58:43;;;;;;;14.40;8.73;;;9.30;99.90;;;;;;4995678;28;20023;-89
2023/11/22 12:01:11;;;;;;;11.68;6.60;;;9.30;99.90;;;;;;4972742;28;20022;-89
2023/11/22 12:03:38;;;;;;;9.68;6.65;;;9.30;99.90;;;;;;4980497;28;20087;-86
2023/11/22 12:06:06;;;;;;;11.05;8.70;;;9.40;99.90;;;;;;4979847;28;20039;-87
2023/11/22 12:08:36;;;;;;;13.27;7.10;;;9.40;99.90;;;;;;4973414;28;20062;-91
2023/11/22 12:11:07;;;;;;;9.90;8.70;;;9.40;99.90;;;;;;4978541;28;20020;-88
2023/11/22 12:13:38;;;;;;;9.20;7.45;;;9.40;99.90;;;;;;4969974;28;20039;-89
2023/11/22 12:16:10;;;;;;;10.25;8.07;;;9.40;99.90;;;;;;4962902;29;20039;-92
2023/11/22 12:18:43;;;;;;;7.00;6.35;;;9.40;99.90;;;;;;4969285;28;20133;-93
2023/11/22 12:21:13;;;;;;;9.75;6.35;;;9.40;99.90;;;;;;4978470;28;20087;-88
2023/11/22 12:23:41;;;;;;;5.28;4.78;;;9.50;99.90;;;;;;4978651;28;20059;-89
2023/11/22 12:26:12;;;;;;;6.18;5.10;;;9.50;99.90;;;;;;4979740;28;20024;-87
2023/11/22 12:28:40;;;;;;;10.45;5.47;;;9.50;99.90;;;;;;4979142;28;20034;-89
2023/11/22 12:31:10;;;;;;;9.30;4.88;;;9.50;99.90;;;;;;4978322;28;20031;-89
2023/11/22 12:33:40;;;;;;;6.78;4.60;;;9.60;99.90;;;;;;4977865;28;20047;-89
2023/11/22 12:36:10;;;;;;;8.52;5.25;;;9.60;99.90;;;;;;4976479;28;20043;-89
2023/11/22 12:38:37;;;;;;;5.80;4.97;;;9.70;99.90;;;;;;4978008;28;20019;-90
2023/11/22 12:41:03;;;;;;;7.35;4.78;;;9.70;99.90;;;;;;4978083;28;20042;-89
2023/11/22 12:43:35;;;;;;;7.82;3.85;;;9.70;99.90;;;;;;4977484;28;20035;-88
2023/11/22 12:46:03;;;;;;;5.82;4.63;;;9.70;99.90;;;;;;4978744;28;20035;-89
2023/11/22 12:48:32;;;;;;;4.70;3.70;;;9.70;99.90;;;;;;4977523;28;20095;-93
2023/11/22 12:51:31;;;;;;;9.93;3.67;;;9.80;99.90;;;;;;4971228;29;20023;-96
2023/11/22 12:54:38;;;;;;;6.78;3.70;;;9.80;99.90;;;;;;4967886;28;20098;-96